createdAt,value
2018-02-14T00:01:54.138Z,7.90
2018-02-14T00:03:57.491Z,7.85
2018-02-14T00:06:00.098Z,8.38
2018-02-14T00:08:02.762Z,8.02
2018-02-14T00:10:05.454Z,8.15
2018-02-14T00:12:08.063Z,7.85
2018-02-14T00:14:10.776Z,8.45
2018-02-14T00:16:13.443Z,8.00
2018-02-14T00:18:16.823Z,7.57
2018-02-14T00:20:19.478Z,8.40
2018-02-14T00:22:22.135Z,7.60
2018-02-14T00:24:25.062Z,8.48
2018-02-14T00:26:27.672Z,8.07
2018-02-14T00:28:30.346Z,8.52
2018-02-14T00:30:33.716Z,8.10
2018-02-14T00:32:36.328Z,7.47
2018-02-14T00:34:39.055Z,8.07
2018-02-14T00:36:42.571Z,8.05
2018-02-14T00:38:45.981Z,7.18
2018-02-14T00:40:49.416Z,8.20
2018-02-14T00:42:52.088Z,6.80
2018-02-14T00:44:55.541Z,8.40
2018-02-14T00:46:58.258Z,8.05
2018-02-14T00:49:01.003Z,7.80
2018-02-14T00:51:03.800Z,7.95
2018-02-14T00:53:07.166Z,8.43
2018-02-14T00:55:09.815Z,8.00
2018-02-14T00:57:13.227Z,8.00
2018-02-14T00:59:16.591Z,9.68
2018-02-14T01:01:19.998Z,8.20
2018-02-14T01:03:22.649Z,8.77
2018-02-14T01:05:26.077Z,7.68
2018-02-14T01:07:28.718Z,7.03
2018-02-14T01:09:31.358Z,7.75
2018-02-14T01:11:34.818Z,8.25
2018-02-14T01:13:37.472Z,8.02
2018-02-14T01:15:40.879Z,8.50
2018-02-14T01:17:44.298Z,7.93
2018-02-14T01:19:47.668Z,8.00
2018-02-14T01:21:50.313Z,7.95
2018-02-14T01:23:53.688Z,8.23
2018-02-14T01:25:56.420Z,8.00
2018-02-14T01:27:59.784Z,8.00
2018-02-14T01:30:02.408Z,7.85
2018-02-14T01:32:05.062Z,8.30
2018-02-14T01:34:07.672Z,8.20
2018-02-14T01:36:10.337Z,8.20
2018-02-14T01:38:13.017Z,8.13
2018-02-14T01:40:16.429Z,8.30
2018-02-14T01:42:19.944Z,7.70
2018-02-14T01:44:23.318Z,8.10
2018-02-14T01:46:25.952Z,7.50
2018-02-14T01:48:29.366Z,8.95
2018-02-14T01:50:40.717Z,7.72
2018-02-14T01:52:43.319Z,6.93
2018-02-14T01:54:46.069Z,8.68
2018-02-14T01:56:48.669Z,8.35
2018-02-14T01:58:51.313Z,8.60
2018-02-14T02:00:53.902Z,8.02
2018-02-14T02:02:57.311Z,7.90
2018-02-14T02:04:59.953Z,7.75
2018-02-14T02:07:03.327Z,7.82
2018-02-14T02:09:05.939Z,7.80
2018-02-14T02:11:08.674Z,7.40
2018-02-14T02:13:11.283Z,7.55
2018-02-14T02:15:13.969Z,7.70
2018-02-14T02:17:16.657Z,8.43
2018-02-14T02:19:20.170Z,7.90
2018-02-14T02:21:23.547Z,7.85
2018-02-14T02:23:26.173Z,7.07
2018-02-14T02:25:29.598Z,8.00
2018-02-14T02:27:32.992Z,7.90
2018-02-14T02:29:35.649Z,8.27
2018-02-14T02:31:38.278Z,7.70
2018-02-14T02:33:40.999Z,7.53
2018-02-14T02:35:44.520Z,8.10
2018-02-14T02:37:47.900Z,8.10
2018-02-14T02:40:02.229Z,7.18
2018-02-14T02:42:04.862Z,7.87
2018-02-14T02:44:07.623Z,7.78
2018-02-14T02:46:10.240Z,7.10
2018-02-14T02:48:12.854Z,8.02
2018-02-14T02:50:15.498Z,6.55
2018-02-14T02:52:18.183Z,9.10
2018-02-14T02:54:21.613Z,8.20
2018-02-14T02:56:24.239Z,8.02
2018-02-14T02:58:26.896Z,7.72
2018-02-14T03:00:29.580Z,7.53
2018-02-14T03:02:32.994Z,7.40
2018-02-14T03:04:36.327Z,7.40
2018-02-14T03:06:39.015Z,8.13
2018-02-14T03:08:41.713Z,7.43
2018-02-14T03:10:45.114Z,7.82
2018-02-14T03:12:48.538Z,7.45
2018-02-14T03:14:51.934Z,7.80
2018-02-14T03:16:54.545Z,7.72
2018-02-14T03:18:58.057Z,7.82
2018-02-14T03:21:01.424Z,8.13
2018-02-14T03:23:04.169Z,7.57
2018-02-14T03:25:07.579Z,7.47
2018-02-14T03:27:10.933Z,7.18
2018-02-14T03:29:13.694Z,7.35
2018-02-14T03:31:16.373Z,7.80
2018-02-14T03:33:18.985Z,7.03
2018-02-14T03:35:22.380Z,7.28
2018-02-14T03:37:25.817Z,8.05
2018-02-14T03:39:29.235Z,7.68
2018-02-14T03:41:32.645Z,7.40
2018-02-14T03:43:36.017Z,7.03
2018-02-14T03:45:38.650Z,7.15
2018-02-14T03:47:42.040Z,6.75
2018-02-14T03:49:44.659Z,6.70
2018-02-14T03:51:48.023Z,7.30
2018-02-14T03:53:50.670Z,7.57
2018-02-14T03:55:54.083Z,7.30
2018-02-14T03:57:57.433Z,7.87
2018-02-14T04:00:00.088Z,6.95
2018-02-14T04:02:03.470Z,6.95
2018-02-14T04:04:06.139Z,6.95
2018-02-14T04:06:08.770Z,6.62
2018-02-14T04:08:11.395Z,7.25
2018-02-14T04:10:14.765Z,7.63
2018-02-14T04:12:17.413Z,7.40
2018-02-14T04:14:20.825Z,6.60
2018-02-14T04:16:24.240Z,6.82
2018-02-14T04:18:27.651Z,7.07
2018-02-14T04:20:31.030Z,6.55
2018-02-14T04:22:33.656Z,6.82
2018-02-14T04:24:37.044Z,6.10
2018-02-14T04:26:39.774Z,6.90
2018-02-14T04:28:43.293Z,6.37
2018-02-14T04:30:46.659Z,6.75
2018-02-14T04:32:49.300Z,6.20
2018-02-14T04:34:52.661Z,6.70
2018-02-14T04:36:55.425Z,6.10
2018-02-14T04:38:58.025Z,6.32
2018-02-14T04:41:00.701Z,6.93
2018-02-14T04:43:04.130Z,6.75
2018-02-14T04:45:06.750Z,6.75
2018-02-14T04:47:09.424Z,6.45
2018-02-14T04:49:12.091Z,6.28
2018-02-14T04:51:14.915Z,5.97
2018-02-14T04:53:18.291Z,7.18
2018-02-14T04:55:20.905Z,6.95
2018-02-14T04:57:23.626Z,6.95
2018-02-14T04:59:26.992Z,7.00
2018-02-14T05:01:29.634Z,6.55
2018-02-14T05:03:33.101Z,7.12
2018-02-14T05:05:35.740Z,7.05
2018-02-14T05:07:39.153Z,6.40
2018-02-14T05:09:42.541Z,6.30
2018-02-14T05:11:45.186Z,7.00
2018-02-14T05:13:47.854Z,6.07
2018-02-14T05:15:51.376Z,7.07
2018-02-14T05:17:54.744Z,6.70
2018-02-14T05:19:57.377Z,6.78
2018-02-14T05:22:00.801Z,7.50
2018-02-14T05:24:04.217Z,6.82
2018-02-14T05:26:07.616Z,6.60
2018-02-14T05:28:10.256Z,6.93
2018-02-14T05:30:12.920Z,5.75
2018-02-14T05:32:16.442Z,6.95
2018-02-14T05:34:19.873Z,7.05
2018-02-14T05:36:22.512Z,6.28
2018-02-14T05:38:25.148Z,5.75
2018-02-14T05:40:28.580Z,6.68
2018-02-14T05:42:31.253Z,7.10
2018-02-14T05:44:34.775Z,6.62
2018-02-14T05:46:38.233Z,6.50
2018-02-14T05:48:40.906Z,6.90
2018-02-14T05:50:43.612Z,6.50
2018-02-14T05:52:46.205Z,7.20
2018-02-14T05:54:48.842Z,6.55
2018-02-14T05:56:51.575Z,7.07
2018-02-14T05:58:54.947Z,7.55
2018-02-14T06:00:57.573Z,6.28
2018-02-14T06:03:00.201Z,6.28
2018-02-14T06:05:02.801Z,6.95
2018-02-14T06:07:05.462Z,6.05
2018-02-14T06:09:08.892Z,6.18
2018-02-14T06:11:12.301Z,6.62
2018-02-14T06:13:15.711Z,6.97
2018-02-14T06:15:19.086Z,5.87
2018-02-14T06:17:21.740Z,6.55
2018-02-14T06:19:24.375Z,6.50
2018-02-14T06:21:27.838Z,6.55
2018-02-14T06:23:31.252Z,6.60
2018-02-14T06:25:34.707Z,7.50
2018-02-14T06:27:37.359Z,6.82
2018-02-14T06:29:40.746Z,6.65
2018-02-14T06:31:43.381Z,6.60
2018-02-14T06:33:46.748Z,6.40
2018-02-14T06:35:49.422Z,6.05
2018-02-14T06:37:52.056Z,6.15
2018-02-14T06:39:54.777Z,6.70
2018-02-14T06:41:58.211Z,7.18
2018-02-14T06:44:00.835Z,6.90
2018-02-14T06:46:03.556Z,6.43
2018-02-14T06:48:06.192Z,6.85
2018-02-14T06:50:09.697Z,6.05
2018-02-14T06:52:13.138Z,6.53
2018-02-14T06:54:15.861Z,6.97
2018-02-14T06:56:18.503Z,6.47
2018-02-14T06:58:21.087Z,6.93
2018-02-14T07:00:23.747Z,6.30
2018-02-14T07:02:26.401Z,6.60
2018-02-14T07:04:29.776Z,6.45
2018-02-14T07:06:32.507Z,6.60
2018-02-14T07:08:35.141Z,6.68
2018-02-14T07:10:37.807Z,6.45
2018-02-14T07:12:41.174Z,6.55
2018-02-14T07:14:43.797Z,6.53
2018-02-14T07:16:46.518Z,6.82
2018-02-14T07:18:50.031Z,6.47
2018-02-14T07:20:53.397Z,6.75
2018-02-14T07:22:55.997Z,6.28
2018-02-14T07:24:58.662Z,6.43
2018-02-14T07:27:01.342Z,6.85
2018-02-14T07:29:04.838Z,6.62
2018-02-14T07:31:08.303Z,7.22
2018-02-14T07:33:10.919Z,6.80
2018-02-14T07:35:13.597Z,7.10
2018-02-14T07:37:16.251Z,7.53
2018-02-14T07:39:19.663Z,7.40
2018-02-14T07:41:23.138Z,6.97
2018-02-14T07:43:25.761Z,6.68
2018-02-14T07:45:28.523Z,6.85
2018-02-14T07:47:31.279Z,6.90
2018-02-14T07:49:34.792Z,7.03
2018-02-14T07:51:38.272Z,6.72
2018-02-14T07:53:40.921Z,7.07
2018-02-14T07:55:43.511Z,6.05
2018-02-14T07:57:46.161Z,7.78
2018-02-14T07:59:48.797Z,8.35
2018-02-14T08:01:52.273Z,6.72
2018-02-14T08:03:54.894Z,6.78
2018-02-14T08:05:57.509Z,6.80
2018-02-14T08:08:00.927Z,6.53
2018-02-14T08:10:03.638Z,6.70
2018-02-14T08:12:06.293Z,6.65
2018-02-14T08:14:08.978Z,7.18
2018-02-14T08:16:11.612Z,5.60
2018-02-14T08:18:14.247Z,6.70
2018-02-14T08:20:16.910Z,7.10
2018-02-14T08:22:19.628Z,6.95
2018-02-14T08:24:22.294Z,6.50
2018-02-14T08:26:25.719Z,6.60
2018-02-14T08:28:28.327Z,7.10
2018-02-14T08:30:30.989Z,6.80
2018-02-14T08:32:34.424Z,7.60
2018-02-14T08:34:37.833Z,7.40
2018-02-14T08:36:41.224Z,7.15
2018-02-14T08:38:43.838Z,7.05
2018-02-14T08:40:47.313Z,6.65
2018-02-14T08:42:50.697Z,8.18
2018-02-14T08:44:53.328Z,8.85
2018-02-14T08:46:56.071Z,7.35
2018-02-14T08:48:59.447Z,6.70
2018-02-14T08:51:02.104Z,5.75
2018-02-14T08:53:04.772Z,6.72
2018-02-14T08:55:08.224Z,8.23
2018-02-14T08:57:10.882Z,6.62
2018-02-14T08:59:14.283Z,6.97
2018-02-14T09:01:16.929Z,7.70
2018-02-14T09:03:19.529Z,7.30
2018-02-14T09:05:22.172Z,7.05
2018-02-14T09:07:25.588Z,7.22
2018-02-14T09:09:28.947Z,6.85
2018-02-14T09:11:31.608Z,6.65
2018-02-14T09:15:38.459Z,7.28
2018-02-14T09:17:41.130Z,7.45
2018-02-14T09:19:44.528Z,7.55
2018-02-14T09:21:47.170Z,7.12
2018-02-14T09:23:49.862Z,7.60
2018-02-14T09:25:53.280Z,6.65
2018-02-14T09:27:56.009Z,7.95
2018-02-14T09:29:58.675Z,7.45
2018-02-14T09:32:01.450Z,7.90
2018-02-14T09:34:04.938Z,7.75
2018-02-14T09:36:07.552Z,7.03
2018-02-14T09:38:10.989Z,7.43
2018-02-14T09:40:13.630Z,7.20
2018-02-14T09:42:16.234Z,7.63
2018-02-14T09:44:20.364Z,6.65
2018-02-14T09:46:22.983Z,7.80
2018-02-14T09:48:25.618Z,7.60
2018-02-14T09:50:28.224Z,7.20
2018-02-14T09:52:30.844Z,7.80
2018-02-14T09:54:33.491Z,8.20
2018-02-14T09:56:36.897Z,6.70
2018-02-14T09:58:40.283Z,8.18
2018-02-14T10:00:42.954Z,7.40
2018-02-14T10:02:46.349Z,7.87
2018-02-14T10:04:48.994Z,6.87
2018-02-14T10:06:51.709Z,7.50
2018-02-14T10:08:55.064Z,7.73
2018-02-14T10:10:58.000Z,8.00
2018-02-14T10:13:00.642Z,7.80
2018-02-14T10:15:03.263Z,7.55
2018-02-14T10:17:05.888Z,8.30
2018-02-14T10:19:08.521Z,7.80
2018-02-14T10:21:11.160Z,7.93
2018-02-14T10:23:13.771Z,9.43
2018-02-14T10:25:16.366Z,8.10
2018-02-14T10:27:19.094Z,7.53
2018-02-14T10:29:22.459Z,9.27
2018-02-14T10:31:25.108Z,10.57
2018-02-14T10:33:28.550Z,9.00
2018-02-14T10:35:31.330Z,8.33
2018-02-14T10:37:34.760Z,7.03
2018-02-14T10:39:37.413Z,7.55
2018-02-14T10:41:40.080Z,7.77
2018-02-14T10:43:42.701Z,7.03
2018-02-14T10:45:45.342Z,7.40
2018-02-14T10:47:47.953Z,7.80
2018-02-14T10:49:50.620Z,7.20
2018-02-14T10:51:54.011Z,6.83
2018-02-14T10:53:56.630Z,7.50
2018-02-14T10:56:00.076Z,7.90
2018-02-14T10:58:02.740Z,7.40
2018-02-14T11:00:06.121Z,6.90
2018-02-14T11:02:10.574Z,7.37
2018-02-14T11:04:19.490Z,6.60
2018-02-14T11:06:36.800Z,7.03
2018-02-14T11:08:39.563Z,6.30
2018-02-14T11:10:42.978Z,6.43
2018-02-14T11:12:46.431Z,6.20
2018-02-14T11:14:49.041Z,6.93
2018-02-14T11:16:51.625Z,6.20
2018-02-14T11:18:54.291Z,7.00
2018-02-14T11:20:56.974Z,6.37
2018-02-14T11:23:00.360Z,6.40
2018-02-14T11:25:02.997Z,6.13
2018-02-14T11:27:05.605Z,6.40
2018-02-14T11:29:08.240Z,5.97
2018-02-14T11:31:10.846Z,6.03
2018-02-14T11:33:13.470Z,5.63
2018-02-14T11:35:16.845Z,5.13
2018-02-14T11:37:19.456Z,5.97
2018-02-14T11:39:22.129Z,6.60
2018-02-14T11:41:24.824Z,6.03
2018-02-14T11:43:28.200Z,6.60
2018-02-14T11:45:30.845Z,6.20
2018-02-14T11:47:34.245Z,5.07
2018-02-14T11:49:36.894Z,6.80
2018-02-14T11:51:40.277Z,6.20
2018-02-14T11:53:42.959Z,6.77
2018-02-14T11:55:46.390Z,6.30
2018-02-14T11:57:49.009Z,5.93
2018-02-14T11:59:52.399Z,6.40
2018-02-14T12:01:55.061Z,7.53
2018-02-14T12:03:57.720Z,5.90
2018-02-14T12:06:01.132Z,5.83
2018-02-14T12:08:04.555Z,5.80
2018-02-14T12:10:07.941Z,6.37
2018-02-14T12:12:10.713Z,6.00
2018-02-14T12:14:13.292Z,6.50
2018-02-14T12:16:15.932Z,6.37
2018-02-14T12:18:18.577Z,6.87
2018-02-14T12:20:21.203Z,6.07
2018-02-14T12:22:23.819Z,5.70
2018-02-14T12:24:26.559Z,6.07
2018-02-14T12:26:29.335Z,5.90
2018-02-14T12:28:32.824Z,5.70
2018-02-14T12:30:35.446Z,5.47
2018-02-14T12:32:38.879Z,6.70
2018-02-14T12:34:41.525Z,6.30
2018-02-14T12:36:44.161Z,6.57
2018-02-14T12:38:47.566Z,6.53
2018-02-14T12:40:50.280Z,6.50
2018-02-14T12:42:53.683Z,6.20
2018-02-14T12:44:57.120Z,6.50
2018-02-14T12:46:59.811Z,6.40
2018-02-14T12:49:02.458Z,6.27
2018-02-14T12:51:05.915Z,6.77
2018-02-14T12:53:09.342Z,7.57
2018-02-14T12:55:11.956Z,6.83
2018-02-14T12:57:14.616Z,7.00
2018-02-14T12:59:18.040Z,6.30
2018-02-14T13:01:21.577Z,6.47
2018-02-14T13:03:24.245Z,6.10
2018-02-14T13:05:27.670Z,6.10
2018-02-14T13:07:31.037Z,6.10
2018-02-14T13:09:33.780Z,6.87
2018-02-14T13:11:37.287Z,6.90
2018-02-14T13:13:40.706Z,6.90
2018-02-14T13:15:43.498Z,5.43
2018-02-14T13:17:46.876Z,6.50
2018-02-14T13:19:49.592Z,6.70
2018-02-14T13:21:52.210Z,6.30
2018-02-14T13:23:55.612Z,6.50
2018-02-14T13:25:59.005Z,6.50
2018-02-14T13:28:01.636Z,6.00
2018-02-14T13:30:05.045Z,6.30
2018-02-14T13:32:08.455Z,6.63
2018-02-14T13:34:11.836Z,6.37
2018-02-14T13:36:14.494Z,6.37
2018-02-14T13:38:17.272Z,6.93
2018-02-14T13:40:20.018Z,7.17
2018-02-14T13:42:22.656Z,5.70
2018-02-14T13:44:26.077Z,6.90
2018-02-14T13:46:29.596Z,6.43
2018-02-14T13:48:32.977Z,5.83
2018-02-14T13:50:35.639Z,6.10
2018-02-14T13:52:38.462Z,6.23
2018-02-14T13:54:41.165Z,6.73
2018-02-14T13:56:43.806Z,5.97
2018-02-14T13:58:47.172Z,7.00
2018-02-14T14:00:49.917Z,6.27
2018-02-14T14:02:53.293Z,6.30
2018-02-14T14:04:56.027Z,5.87
2018-02-14T14:06:59.458Z,6.23
2018-02-14T14:09:02.133Z,6.90
2018-02-14T14:11:05.653Z,6.20
2018-02-14T14:13:09.113Z,6.60
2018-02-14T14:15:11.972Z,6.67
2018-02-14T14:17:15.377Z,6.27
2018-02-14T14:19:18.017Z,6.13
2018-02-14T14:21:20.656Z,7.70
2018-02-14T14:23:23.276Z,6.60
2018-02-14T14:25:26.739Z,6.10
2018-02-14T14:27:29.417Z,7.10
2018-02-14T14:29:32.057Z,6.47
2018-02-14T14:31:34.672Z,7.57
2018-02-14T14:33:37.380Z,6.63
2018-02-14T14:35:40.773Z,7.90
2018-02-14T14:37:43.384Z,7.47
2018-02-14T14:39:46.907Z,7.00
2018-02-14T14:41:50.328Z,6.27
2018-02-14T14:43:53.836Z,6.93
2018-02-14T14:45:57.202Z,6.50
2018-02-14T14:47:59.807Z,6.63
2018-02-14T14:50:02.549Z,6.80
2018-02-14T14:52:05.919Z,6.57
2018-02-14T14:54:08.602Z,6.10
2018-02-14T14:56:11.243Z,7.40
2018-02-14T14:58:14.624Z,7.40
2018-02-14T15:00:17.324Z,7.30
2018-02-14T15:02:20.685Z,6.37
2018-02-14T15:04:23.304Z,7.27
2018-02-14T15:06:26.024Z,6.90
2018-02-14T15:08:28.644Z,7.70
2018-02-14T15:10:31.459Z,7.60
2018-02-14T15:12:34.849Z,7.47
2018-02-14T15:14:37.462Z,7.70
2018-02-14T15:16:40.129Z,7.70
2018-02-14T15:18:42.867Z,9.20
2018-02-14T15:20:46.239Z,7.97
2018-02-14T15:22:48.901Z,7.40
2018-02-14T15:24:51.510Z,7.03
2018-02-14T15:26:54.173Z,8.03
2018-02-14T15:28:57.623Z,7.03
2018-02-14T15:31:00.224Z,7.80
2018-02-14T15:33:02.859Z,7.47
2018-02-14T15:35:05.499Z,7.77
2018-02-14T15:37:08.148Z,8.50
2018-02-14T15:39:10.807Z,7.83
2018-02-14T15:41:13.410Z,8.20
2018-02-14T15:43:16.029Z,7.13
2018-02-14T15:45:18.669Z,7.07
2018-02-14T15:47:21.328Z,7.77
2018-02-14T15:49:23.961Z,7.23
2018-02-14T15:51:26.609Z,7.73
2018-02-14T15:53:29.992Z,7.90
2018-02-14T15:55:32.770Z,8.23
2018-02-14T15:57:35.367Z,7.60
2018-02-14T15:59:38.154Z,8.10
2018-02-14T16:01:41.570Z,7.80
2018-02-14T16:03:45.006Z,7.53
2018-02-14T16:05:47.622Z,8.10
2018-02-14T16:07:50.243Z,8.20
2018-02-14T16:09:52.928Z,7.70
2018-02-14T16:11:55.672Z,8.23
2018-02-14T16:13:59.048Z,7.50
2018-02-14T16:16:01.648Z,8.43
2018-02-14T16:18:04.395Z,7.90
2018-02-14T16:20:07.182Z,8.37
2018-02-14T16:22:10.615Z,8.70
2018-02-14T16:24:13.229Z,7.50
2018-02-14T16:26:15.855Z,7.67
2018-02-14T16:28:18.581Z,7.70
2018-02-14T16:30:22.025Z,7.30
2018-02-14T16:32:24.699Z,7.82
2018-02-14T16:34:28.154Z,8.10
2018-02-14T16:36:30.807Z,7.93
2018-02-14T16:38:34.202Z,8.10
2018-02-14T16:40:36.967Z,7.10
2018-02-14T16:42:39.620Z,7.27
2018-02-14T16:44:43.054Z,8.50
2018-02-14T16:46:45.798Z,8.40
2018-02-14T16:48:48.525Z,7.57
2018-02-14T16:50:51.961Z,7.47
2018-02-14T16:52:54.649Z,7.83
2018-02-14T16:54:58.109Z,7.70
2018-02-14T16:57:00.809Z,8.00
2018-02-14T16:59:03.561Z,7.40
2018-02-14T17:01:07.041Z,7.30
2018-02-14T17:03:09.688Z,7.53
2018-02-14T17:05:12.407Z,7.50
2018-02-14T17:07:15.042Z,7.63
2018-02-14T17:09:17.702Z,7.87
2018-02-14T17:11:20.455Z,8.73
2018-02-14T17:13:23.835Z,9.50
2018-02-14T17:15:26.436Z,7.63
2018-02-14T17:17:29.146Z,8.40
2018-02-14T17:19:31.765Z,8.20
2018-02-14T17:21:35.130Z,7.35
2018-02-14T17:23:37.816Z,7.73
2018-02-14T17:25:40.468Z,7.43
2018-02-14T17:27:44.191Z,8.30
2018-02-14T17:29:47.565Z,8.53
2018-02-14T17:31:51.736Z,6.93
2018-02-14T17:33:55.180Z,8.45
2018-02-14T17:35:57.830Z,8.30
2018-02-14T17:38:01.616Z,8.00
2018-02-14T17:40:04.322Z,7.47
2018-02-14T17:42:07.076Z,7.57
2018-02-14T17:44:09.872Z,8.60
2018-02-14T17:46:13.325Z,7.60
2018-02-14T17:48:15.991Z,8.93
2018-02-14T17:50:18.669Z,7.73
2018-02-14T17:52:22.194Z,8.90
2018-02-14T17:54:25.605Z,9.13
2018-02-14T17:56:29.020Z,7.43
2018-02-14T17:58:32.477Z,6.95
2018-02-14T18:00:35.165Z,7.13
2018-02-14T18:02:37.830Z,7.50
2018-02-14T18:04:41.216Z,8.13
2018-02-14T18:06:44.691Z,7.40
2018-02-14T18:08:47.456Z,7.28
2018-02-14T18:10:50.970Z,7.12
2018-02-14T18:12:54.366Z,6.53
2018-02-14T18:14:57.022Z,7.50
2018-02-14T18:16:59.645Z,7.60
2018-02-14T18:19:02.502Z,8.07
2018-02-14T18:21:05.155Z,7.53
2018-02-14T18:23:07.772Z,6.53
2018-02-14T18:25:11.359Z,6.87
2018-02-14T18:27:13.950Z,6.97
2018-02-14T18:29:16.590Z,8.05
2018-02-14T18:31:20.052Z,7.77
2018-02-14T18:33:22.685Z,7.72
2018-02-14T18:35:26.125Z,8.40
2018-02-14T18:37:28.842Z,7.43
2018-02-14T18:39:31.617Z,7.30
2018-02-14T18:41:35.051Z,7.20
2018-02-14T18:43:37.690Z,8.30
2018-02-14T18:45:40.428Z,9.13
2018-02-14T18:47:43.103Z,8.18
2018-02-14T18:49:46.644Z,7.45
2018-02-14T18:51:49.264Z,7.43
2018-02-14T18:53:51.957Z,8.05
2018-02-14T18:55:54.716Z,7.60
2018-02-14T18:57:58.173Z,7.90
2018-02-14T19:00:00.871Z,8.20
2018-02-14T19:02:03.636Z,7.12
2018-02-14T19:04:07.042Z,8.55
2018-02-14T19:06:10.566Z,8.52
2018-02-14T19:08:13.940Z,8.63
2018-02-14T19:10:16.581Z,9.25
2018-02-14T19:12:19.252Z,8.05
2018-02-14T19:14:21.884Z,8.43
2018-02-14T19:16:24.597Z,8.90
2018-02-14T19:18:27.266Z,8.52
2018-02-14T19:20:30.685Z,8.35
2018-02-14T19:22:34.167Z,9.15
2018-02-14T19:24:36.807Z,9.15
2018-02-14T19:26:39.489Z,8.07
2018-02-14T19:28:42.910Z,9.33
2018-02-14T19:30:45.603Z,9.35
2018-02-14T19:32:48.254Z,8.90
2018-02-14T19:34:50.899Z,8.65
2018-02-14T19:36:54.345Z,8.50
2018-02-14T19:38:56.977Z,8.90
2018-02-14T19:40:59.613Z,8.43
2018-02-14T19:43:15.422Z,9.13
2018-02-14T19:45:18.098Z,8.85
2018-02-14T19:47:20.730Z,9.50
2018-02-14T19:49:24.155Z,8.38
2018-02-14T19:51:27.617Z,9.60
2018-02-14T19:53:30.262Z,9.20
2018-02-14T19:55:33.072Z,8.52
2018-02-14T19:57:36.497Z,9.15
2018-02-14T19:59:39.183Z,9.80
2018-02-14T20:01:42.677Z,9.98
2018-02-14T20:03:45.402Z,9.20
2018-02-14T20:05:48.187Z,10.15
2018-02-14T20:07:50.812Z,10.65
2018-02-14T20:09:53.513Z,10.95
2018-02-14T20:11:56.184Z,10.38
2018-02-14T20:13:58.857Z,9.90
2018-02-14T20:16:02.251Z,11.10
2018-02-14T20:18:05.785Z,10.55
2018-02-14T20:20:09.248Z,9.93
2018-02-14T20:22:11.902Z,10.40
2018-02-14T20:24:14.697Z,11.23
2018-02-14T20:26:18.221Z,11.52
2018-02-14T20:28:20.867Z,11.40
2018-02-14T20:30:23.602Z,11.55
2018-02-14T20:32:27.019Z,10.73
2018-02-14T20:34:30.462Z,10.30
2018-02-14T20:36:33.142Z,11.12
2018-02-14T20:38:35.842Z,10.68
2018-02-14T20:40:38.633Z,11.40
2018-02-14T20:42:42.153Z,10.13
2018-02-14T20:44:45.639Z,10.15
2018-02-14T20:46:48.293Z,11.30
2018-02-14T20:48:50.933Z,11.05
2018-02-14T20:50:53.756Z,11.17
2018-02-14T20:52:57.170Z,11.25
2018-02-14T20:55:00.583Z,10.43
2018-02-14T20:57:04.105Z,10.90
2018-02-14T20:59:07.514Z,10.60
2018-02-14T21:01:11.084Z,11.70
2018-02-14T21:03:13.729Z,11.50
2018-02-14T21:05:17.173Z,11.67
2018-02-14T21:07:19.859Z,10.13
2018-02-14T21:09:22.484Z,11.60
2018-02-14T21:11:25.249Z,10.20
2018-02-14T21:13:27.903Z,11.12
2018-02-14T21:15:30.616Z,10.20
2018-02-14T21:17:34.009Z,10.20
2018-02-14T21:19:36.746Z,9.83
2018-02-14T21:21:40.258Z,10.40
2018-02-14T21:23:43.713Z,10.23
2018-02-14T21:25:46.347Z,10.40
2018-02-14T21:27:49.011Z,10.57
2018-02-14T21:29:51.669Z,10.70
2018-02-14T21:31:54.339Z,11.10
2018-02-14T21:33:57.059Z,10.60
2018-02-14T21:36:00.457Z,10.23
2018-02-14T21:38:03.899Z,10.55
2018-02-14T21:40:06.581Z,11.02
2018-02-14T21:42:10.010Z,10.00
2018-02-14T21:44:12.648Z,10.77
2018-02-14T21:46:15.339Z,10.10
2018-02-14T21:48:18.075Z,8.75
2018-02-14T21:50:20.697Z,8.30
2018-02-14T21:52:23.363Z,9.77
2018-02-14T21:54:26.017Z,9.25
2018-02-14T21:56:28.779Z,8.10
2018-02-14T21:58:32.194Z,8.00
2018-02-14T22:00:35.609Z,9.65
2018-02-14T22:02:38.262Z,9.38
2018-02-14T22:04:40.913Z,7.47
2018-02-14T22:06:43.649Z,9.50
2018-02-14T22:08:47.058Z,9.45
2018-02-14T22:10:49.777Z,9.50
2018-02-14T22:12:52.513Z,7.97
2018-02-14T22:14:55.894Z,8.97
2018-02-14T22:16:58.573Z,8.80
2018-02-14T22:19:01.318Z,8.10
2018-02-14T22:21:03.963Z,9.47
2018-02-14T22:23:06.724Z,9.00
2018-02-14T22:25:10.089Z,7.80
2018-02-14T22:27:12.830Z,8.95
2018-02-14T22:29:16.199Z,9.30
2018-02-14T22:31:18.834Z,8.63
2018-02-14T22:33:22.359Z,8.20
2018-02-14T22:35:25.060Z,8.50
2018-02-14T22:37:27.757Z,8.70
2018-02-14T22:39:31.263Z,8.80
2018-02-14T22:41:34.679Z,9.20
2018-02-14T22:43:38.106Z,8.47
2018-02-14T22:45:40.904Z,7.80
2018-02-14T22:47:43.513Z,8.60
2018-02-14T22:49:46.128Z,8.10
2018-02-14T22:51:48.818Z,7.95
2018-02-14T22:53:51.443Z,9.25
2018-02-14T22:55:54.058Z,7.03
2018-02-14T22:57:56.764Z,7.97
2018-02-14T22:59:59.429Z,8.02
2018-02-14T23:02:02.934Z,10.00
2018-02-14T23:04:05.685Z,9.18
2018-02-14T23:06:08.383Z,8.70
2018-02-14T23:08:11.900Z,9.07
2018-02-14T23:10:15.417Z,9.10
2018-02-14T23:12:18.842Z,8.75
2018-02-14T23:14:21.443Z,9.27
2018-02-14T23:16:24.101Z,9.57
2018-02-14T23:18:26.722Z,8.23
2018-02-14T23:20:30.160Z,8.45
2018-02-14T23:22:32.819Z,8.27
2018-02-14T23:24:36.205Z,8.20
2018-02-14T23:26:39.654Z,9.25
2018-02-14T23:28:43.188Z,9.30
2018-02-14T23:30:45.805Z,9.05
2018-02-14T23:32:48.471Z,9.20
2018-02-14T23:34:51.884Z,9.35
2018-02-14T23:36:55.295Z,9.23
2018-02-14T23:38:58.720Z,8.55
2018-02-14T23:41:01.353Z,7.87
2018-02-14T23:43:03.961Z,8.48
2018-02-14T23:45:06.623Z,8.90
2018-02-14T23:47:09.251Z,9.30
2018-02-14T23:49:12.641Z,9.05
2018-02-14T23:51:15.239Z,9.20
2018-02-14T23:53:17.918Z,9.07
2018-02-14T23:55:20.546Z,8.80
2018-02-14T23:57:23.132Z,9.10
2018-02-14T23:59:25.772Z,9.23
